Time;durP1;ratioP1;P1;durP2;ratioP2;P2;SDS_P1;SDS_P2;PMS_P1;PMS_P2;Temp;Humidity;BMP_temperature;BMP_pressure;BME280_temperature;BME280_humidity;BME280_pressure;Samples;Min_cycle;Max_cycle;Signal;HPM_P1;HPM_P2
2021/12/08 00:00:19;;;;;;;6.50;2.90;;;;;;;2.58;83.89;98463.56;4972392;28;20210;-61
2021/12/08 00:02:45;;;;;;;6.87;2.80;;;;;;;2.21;86.99;98455.97;4991647;28;20179;-62
2021/12/08 00:05:13;;;;;;;5.77;2.50;;;;;;;2.07;89.02;98446.47;4992415;28;20235;-61
2021/12/08 00:07:38;;;;;;;5.27;2.73;;;;;;;1.96;89.95;98447.84;4992523;28;20185;-61
2021/12/08 00:10:17;;;;;;;7.83;2.70;;;;;;;1.88;90.80;98433.78;4982280;28;20202;-61
2021/12/08 00:15:40;;;;;;;2.77;2.27;;;;;;;1.84;92.11;98419.63;4982495;28;20698;-61
2021/12/08 00:18:09;;;;;;;6.23;2.83;;;;;;;1.77;93.05;98413.16;4983661;28;20177;-61
2021/12/08 00:20:37;;;;;;;4.90;2.67;;;;;;;1.77;92.75;98413.16;4981639;28;20431;-61
2021/12/08 00:23:05;;;;;;;5.50;2.23;;;;;;;1.83;92.03;98412.09;4990948;28;20184;-61
2021/12/08 00:25:31;;;;;;;7.00;2.27;;;;;;;1.88;90.61;98400.00;4990777;28;20186;-62
2021/12/08 00:27:57;;;;;;;6.43;2.63;;;;;;;1.92;90.43;98406.56;4992341;28;20255;-62
2021/12/08 00:30:23;;;;;;;2.87;1.80;;;;;;;1.87;91.81;98405.97;4961589;28;20220;-61
2021/12/08 00:32:50;;;;;;;4.80;2.40;;;;;;;1.80;93.15;98405.44;4991326;28;20652;-62
2021/12/08 00:35:16;;;;;;;4.43;2.20;;;;;;;1.74;93.77;98409.06;4992006;28;20207;-61
2021/12/08 00:37:41;;;;;;;3.97;1.90;;;;;;;1.78;95.33;98402.94;4992144;28;20175;-61
2021/12/08 00:40:10;;;;;;;3.63;2.20;;;;;;;1.64;97.29;98410.38;4981714;28;20694;-61
2021/12/08 00:42:36;;;;;;;3.43;2.10;;;;;;;1.72;97.99;98410.03;4990880;28;20577;-61
2021/12/08 00:45:04;;;;;;;2.57;1.80;;;;;;;1.73;98.66;98416.75;4991840;28;20176;-61
2021/12/08 00:47:30;;;;;;;3.90;2.13;;;;;;;1.76;98.73;98426.72;4991830;28;20180;-61
2021/12/08 00:49:55;;;;;;;8.60;2.83;;;;;;;1.65;98.67;98434.84;4991272;28;20167;-61
2021/12/08 00:52:20;;;;;;;9.07;2.23;;;;;;;1.68;98.51;98444.03;4980840;28;20223;-61
2021/12/08 00:54:46;;;;;;;4.60;2.33;;;;;;;1.80;97.64;98455.31;4991754;28;20169;-61
2021/12/08 00:57:11;;;;;;;2.87;1.90;;;;;;;1.91;97.21;98465.78;4991555;28;20188;-61
2021/12/08 00:59:37;;;;;;;4.87;2.30;;;;;;;2.01;98.28;98477.19;5006808;28;20652;-61
2021/12/08 01:02:04;;;;;;;4.57;2.57;;;;;;;1.89;97.02;98478.53;4999942;28;20231;-61
2021/12/08 01:04:31;;;;;;;3.17;2.10;;;;;;;1.99;96.89;98481.47;5011121;28;20181;-61
2021/12/08 01:06:56;;;;;;;6.10;2.13;;;;;;;2.08;97.88;98487.84;5011119;28;20513;-61
2021/12/08 01:09:21;;;;;;;6.37;2.20;;;;;;;2.13;98.95;98500.34;5009622;28;20181;-61
2021/12/08 01:11:48;;;;;;;5.00;2.90;;;;;;;2.15;99.49;98496.84;5000033;28;20226;-61
2021/12/08 01:14:14;;;;;;;6.27;2.30;;;;;;;2.09;98.95;98497.91;5010726;28;20182;-61
2021/12/08 01:16:40;;;;;;;4.13;2.07;;;;;;;1.99;96.37;98499.25;5006515;28;20201;-61
2021/12/08 01:19:05;;;;;;;4.93;2.17;;;;;;;1.85;96.68;98506.63;5004151;28;20175;-61
2021/12/08 01:21:30;;;;;;;5.30;2.43;;;;;;;1.72;96.74;98506.34;4999886;28;20236;-61
2021/12/08 01:23:56;;;;;;;6.00;2.27;;;;;;;1.75;96.87;98499.44;5010704;28;20190;-61
2021/12/08 01:26:21;;;;;;;4.43;2.20;;;;;;;1.83;98.20;98508.44;5011089;28;20168;-60
2021/12/08 01:28:47;;;;;;;5.93;2.23;;;;;;;1.77;97.90;98497.69;5014267;28;20172;-60
2021/12/08 01:31:13;;;;;;;8.13;2.80;;;;;;;1.84;99.23;98492.34;5003886;28;20241;-61
2021/12/08 01:33:38;;;;;;;4.13;2.47;;;;;;;1.91;99.25;98504.66;5014313;28;20174;-61
2021/12/08 01:36:05;;;;;;;5.43;2.60;;;;;;;2.02;99.14;98499.13;4997281;28;20576;-61
2021/12/08 01:38:32;;;;;;;4.13;2.80;;;;;;;1.92;99.30;98491.09;5014793;28;20181;-61
2021/12/08 01:40:58;;;;;;;7.10;2.97;;;;;;;1.83;98.88;98488.16;5003802;28;20290;-61
2021/12/08 01:43:41;;;;;;;3.00;2.57;;;;;;;1.78;98.58;98481.53;5014136;28;20177;-61
2021/12/08 01:46:11;;;;;;;7.30;2.97;;;;;;;1.82;99.15;98497.44;5014737;28;20183;-61
2021/12/08 01:48:40;;;;;;;4.67;2.60;;;;;;;1.92;100.00;98496.16;5014939;28;20171;-61
2021/12/08 01:51:12;;;;;;;6.10;2.60;;;;;;;1.80;99.64;98484.03;5004034;28;20260;-61
2021/12/08 01:53:40;;;;;;;6.27;3.00;;;;;;;1.84;100.00;98484.72;5014174;28;20172;-61
2021/12/08 01:56:07;;;;;;;3.43;2.33;;;;;;;1.61;100.00;98481.47;5014409;28;20191;-61
2021/12/08 01:58:32;;;;;;;6.43;2.73;;;;;;;1.68;100.00;98480.31;5007294;28;20184;-60
2021/12/08 02:01:03;;;;;;;3.60;2.87;;;;;;;1.61;100.00;98477.25;4983751;28;20550;-61
2021/12/08 02:03:29;;;;;;;3.70;2.50;;;;;;;1.73;100.00;98467.44;4994189;28;20250;-60
2021/12/08 02:05:55;;;;;;;5.37;2.60;;;;;;;1.84;100.00;98456.84;4994862;28;20173;-60
2021/12/08 02:08:21;;;;;;;4.17;2.70;;;;;;;1.72;100.00;98458.19;4994629;28;20246;-61
2021/12/08 02:10:47;;;;;;;3.90;3.10;;;;;;;1.80;100.00;98448.53;4983779;28;20315;-60
2021/12/08 02:13:14;;;;;;;7.83;3.07;;;;;;;1.70;100.00;98450.66;4993688;28;20173;-61
2021/12/08 02:15:41;;;;;;;6.47;3.40;;;;;;;1.61;100.00;98446.81;4994562;28;20625;-61
2021/12/08 02:18:09;;;;;;;4.13;2.80;;;;;;;1.66;100.00;98449.13;4997960;28;20291;-60
2021/12/08 02:20:35;;;;;;;4.87;2.90;;;;;;;1.69;100.00;98443.13;4992663;28;20237;-61
2021/12/08 02:23:00;;;;;;;6.53;2.60;;;;;;;1.56;100.00;98433.53;5004854;28;20620;-61
2021/12/08 02:25:26;;;;;;;2.97;2.30;;;;;;;1.69;100.00;98443.13;5013288;28;20182;-61
2021/12/08 02:27:54;;;;;;;7.60;2.77;;;;;;;1.70;100.00;98444.75;4994392;28;20192;-61
2021/12/08 02:47:31;;;;;;;4.87;2.93;;;;;;;1.96;100.00;98425.00;4914971;29;20214;-61
2021/12/08 02:49:57;;;;;;;6.03;3.20;;;;;;;1.85;100.00;98426.34;4914280;29;20262;-61
2021/12/08 02:52:24;;;;;;;5.77;2.70;;;;;;;1.85;100.00;98431.41;4904820;29;20226;-61
2021/12/08 02:54:51;;;;;;;7.43;2.40;;;;;;;1.84;100.00;98429.75;4914593;29;20189;-61
2021/12/08 02:57:23;;;;;;;4.73;2.63;;;;;;;1.89;100.00;98435.44;4914251;29;20204;-61
2021/12/08 02:59:50;;;;;;;5.80;2.00;;;;;;;1.94;100.00;98433.50;4930665;29;20230;-61
2021/12/08 03:02:16;;;;;;;6.47;2.70;;;;;;;1.83;100.00;98427.28;4923560;28;20287;-61
2021/12/08 03:04:42;;;;;;;3.97;2.20;;;;;;;1.98;100.00;98428.31;4933330;29;20183;-61
2021/12/08 03:07:08;;;;;;;6.13;2.37;;;;;;;1.82;100.00;98426.44;4933357;29;20817;-61
2021/12/08 03:09:34;;;;;;;4.63;2.63;;;;;;;1.89;100.00;98432.91;4968503;28;20574;-61
2021/12/08 03:12:01;;;;;;;2.97;2.00;;;;;;;2.01;100.00;98431.53;4985345;28;20231;-61
2021/12/08 03:14:29;;;;;;;2.53;1.87;;;;;;;1.92;100.00;98425.16;5012920;28;20649;-62
2021/12/08 03:16:57;;;;;;;6.10;2.27;;;;;;;1.82;100.00;98423.13;5006437;28;20178;-61
2021/12/08 03:19:25;;;;;;;4.30;1.90;;;;;;;1.80;100.00;98428.25;5008392;28;20225;-61
2021/12/08 03:21:51;;;;;;;5.40;2.47;;;;;;;2.03;100.00;98423.84;5002518;28;20236;-61
2021/12/08 03:26:51;;;;;;;5.50;2.70;;;;;;;1.90;100.00;98426.13;5013027;28;20294;-61
2021/12/08 03:29:27;;;;;;;3.80;2.63;;;;;;;1.93;100.00;98425.97;5012835;28;20200;-61
2021/12/08 03:31:54;;;;;;;6.37;3.07;;;;;;;2.03;100.00;98427.19;5001506;28;20233;-61
2021/12/08 03:34:23;;;;;;;4.00;2.87;;;;;;;2.06;100.00;98429.59;5012627;28;20175;-61
2021/12/08 03:36:48;;;;;;;6.87;3.30;;;;;;;2.09;100.00;98429.44;5012571;28;20171;-62
2021/12/08 03:39:14;;;;;;;4.40;2.93;;;;;;;2.15;100.00;98435.13;5012299;28;20179;-60
2021/12/08 03:41:40;;;;;;;8.10;3.20;;;;;;;2.17;100.00;98433.34;5001516;28;20303;-60
2021/12/08 03:44:07;;;;;;;5.30;3.23;;;;;;;2.24;100.00;98432.97;5012294;28;20634;-59
2021/12/08 03:46:39;;;;;;;5.53;2.90;;;;;;;2.42;99.77;98428.75;5012337;28;20650;-59
2021/12/08 03:49:09;;;;;;;8.07;3.77;;;;;;;2.44;99.00;98433.75;5012207;28;20550;-60
2021/12/08 03:51:35;;;;;;;7.37;3.07;;;;;;;2.54;99.08;98434.97;5000930;28;20301;-60
2021/12/08 03:54:00;;;;;;;7.23;3.37;;;;;;;2.47;98.14;98425.16;5012090;28;20185;-59
2021/12/08 03:56:26;;;;;;;9.17;3.27;;;;;;;2.45;98.70;98419.34;5012192;28;20195;-60
2021/12/08 03:58:51;;;;;;;5.90;2.80;;;;;;;2.66;99.36;98415.75;5002810;28;20187;-60
2021/12/08 04:01:16;;;;;;;5.40;3.17;;;;;;;2.69;100.00;98409.72;4961331;28;20327;-60
2021/12/08 04:03:48;;;;;;;4.10;3.43;;;;;;;2.78;100.00;98416.03;4985548;28;20264;-60
2021/12/08 04:06:27;;;;;;;7.63;3.30;;;;;;;2.78;100.00;98405.88;4992494;28;20182;-60
2021/12/08 04:08:56;;;;;;;5.83;2.70;;;;;;;2.73;99.77;98419.66;4992494;28;20181;-60
2021/12/08 04:11:22;;;;;;;4.10;2.80;;;;;;;2.71;100.00;98418.06;4981263;28;20347;-60
2021/12/08 04:14:08;;;;;;;6.03;3.40;;;;;;;2.57;100.00;98408.59;4991597;28;20278;-60
2021/12/08 04:16:38;;;;;;;4.57;3.07;;;;;;;2.44;100.00;98413.44;4981378;28;20312;-60
2021/12/08 04:19:05;;;;;;;4.37;2.93;;;;;;;2.51;100.00;98407.19;4995026;28;20178;-60
2021/12/08 04:21:31;;;;;;;5.50;3.40;;;;;;;2.64;100.00;98399.81;4981210;28;20242;-59
2021/12/08 04:23:57;;;;;;;5.20;3.50;;;;;;;2.62;100.00;98403.28;4991645;28;20723;-60
2021/12/08 04:26:38;;;;;;;5.17;3.13;;;;;;;2.55;100.00;98397.69;4992162;28;20257;-60
2021/12/08 04:29:08;;;;;;;7.17;3.70;;;;;;;2.58;99.91;98403.44;4991823;28;20269;-60
2021/12/08 04:31:36;;;;;;;5.70;3.97;;;;;;;2.58;99.65;98395.84;4961376;28;20789;-60
2021/12/08 04:34:06;;;;;;;3.77;3.00;;;;;;;2.51;99.16;98409.72;4991441;28;20598;-60
2021/12/08 04:36:43;;;;;;;4.60;2.93;;;;;;;2.53;99.64;98415.56;4991845;28;20183;-60
2021/12/08 04:39:16;;;;;;;5.40;3.47;;;;;;;2.41;99.56;98411.88;4991450;28;20178;-60
2021/12/08 04:41:47;;;;;;;6.93;3.43;;;;;;;2.45;100.00;98407.47;4980923;28;20233;-60
2021/12/08 04:44:32;;;;;;;4.03;2.80;;;;;;;2.47;100.00;98418.38;4990970;28;20273;-60
2021/12/08 04:52:45;;;;;;;4.10;3.03;;;;;;;2.58;99.11;98428.03;4964622;28;20222;-60
2021/12/08 05:04:10;;;;;;;3.90;2.87;;;;;;;2.49;99.91;98419.09;5010515;28;20178;-60
2021/12/08 05:06:50;;;;;;;3.60;3.07;;;;;;;2.50;100.00;98423.28;5011374;28;20238;-60
2021/12/08 05:09:24;;;;;;;3.93;2.87;;;;;;;2.47;100.00;98415.00;5010818;28;20598;-60
2021/12/08 05:11:54;;;;;;;4.70;2.90;;;;;;;2.47;100.00;98422.63;4999896;28;20242;-60
2021/12/08 05:14:25;;;;;;;3.53;2.90;;;;;;;2.58;100.00;98420.41;5009668;28;20229;-60
2021/12/08 05:16:56;;;;;;;4.47;2.40;;;;;;;2.58;100.00;98417.88;5004951;28;20186;-60
2021/12/08 05:19:25;;;;;;;2.97;2.50;;;;;;;2.33;100.00;98419.06;5006256;28;20198;-60
2021/12/08 05:22:06;;;;;;;3.53;2.80;;;;;;;2.49;100.00;98431.00;4999700;28;20244;-60
2021/12/08 05:24:37;;;;;;;3.67;3.10;;;;;;;2.45;100.00;98437.13;5010876;28;20582;-60
2021/12/08 05:27:14;;;;;;;5.53;3.50;;;;;;;2.52;100.00;98435.94;5011118;28;20194;-60
2021/12/08 05:29:51;;;;;;;4.50;3.00;;;;;;;2.62;100.00;98431.22;5010671;28;20716;-61
2021/12/08 05:32:17;;;;;;;5.60;3.23;;;;;;;2.76;100.00;98433.09;4999878;28;20229;-60
2021/12/08 05:34:43;;;;;;;4.30;2.87;;;;;;;2.57;100.00;98426.38;5010835;28;20185;-59
2021/12/08 05:37:12;;;;;;;4.47;2.67;;;;;;;2.69;100.00;98422.41;5011084;28;20189;-61
2021/12/08 05:39:38;;;;;;;5.60;3.20;;;;;;;2.48;100.00;98417.50;5010436;28;20218;-61
2021/12/08 05:42:08;;;;;;;4.97;3.10;;;;;;;2.46;100.00;98421.00;4999483;28;20369;-61
2021/12/08 05:44:34;;;;;;;4.40;3.47;;;;;;;2.46;100.00;98416.72;5010923;28;20174;-61
2021/12/08 05:47:07;;;;;;;3.73;3.17;;;;;;;2.34;100.00;98415.59;5011129;28;20211;-60
2021/12/08 05:49:32;;;;;;;6.53;3.23;;;;;;;2.43;100.00;98432.09;5010513;28;20185;-61
2021/12/08 05:51:58;;;;;;;5.27;3.90;;;;;;;2.65;100.00;98428.53;4999350;28;20238;-61
2021/12/08 05:54:32;;;;;;;4.10;3.03;;;;;;;2.67;100.00;98426.75;5010673;28;20586;-61
2021/12/08 05:57:03;;;;;;;5.40;3.40;;;;;;;2.73;100.00;98417.09;5010524;28;20193;-60
2021/12/08 05:59:30;;;;;;;9.00;3.10;;;;;;;2.59;100.00;98422.03;4995630;28;20195;-60
2021/12/08 06:02:00;;;;;;;4.53;3.23;;;;;;;2.83;100.00;98416.63;4979552;28;20258;-60
2021/12/08 06:04:29;;;;;;;5.33;3.70;;;;;;;2.94;100.00;98411.88;4990989;28;20178;-60
2021/12/08 06:06:54;;;;;;;9.60;3.37;;;;;;;3.04;100.00;98410.50;4991062;28;20184;-60
2021/12/08 06:09:21;;;;;;;4.43;3.70;;;;;;;2.83;100.00;98414.09;4990556;28;20178;-61
2021/12/08 06:11:48;;;;;;;5.40;4.10;;;;;;;2.85;100.00;98410.59;4979900;28;20677;-60
2021/12/08 06:14:16;;;;;;;6.07;4.00;;;;;;;2.73;100.00;98409.47;4992678;28;20178;-60
2021/12/08 06:16:43;;;;;;;5.77;4.23;;;;;;;2.86;100.00;98413.97;4981705;28;20511;-60
2021/12/08 06:19:11;;;;;;;7.13;4.07;;;;;;;2.86;100.00;98419.84;5000237;28;20722;-60
2021/12/08 06:21:37;;;;;;;4.93;4.07;;;;;;;2.68;100.00;98405.53;4983346;28;20728;-61
2021/12/08 06:24:06;;;;;;;5.17;4.47;;;;;;;2.85;100.00;98413.16;4994193;28;20184;-60
2021/12/08 06:26:32;;;;;;;6.67;4.23;;;;;;;3.00;100.00;98418.34;4994262;28;20244;-60
2021/12/08 06:28:58;;;;;;;6.53;4.77;;;;;;;3.09;100.00;98425.50;4994077;28;20263;-60
2021/12/08 06:31:27;;;;;;;5.13;4.63;;;;;;;3.13;100.00;98429.53;4982463;28;20368;-60
2021/12/08 06:33:52;;;;;;;6.87;5.00;;;;;;;3.11;100.00;98422.88;4993589;28;20702;-60
2021/12/08 06:36:31;;;;;;;9.20;5.33;;;;;;;3.11;100.00;98423.69;4994088;28;20179;-60
2021/12/08 06:38:58;;;;;;;7.73;5.10;;;;;;;2.89;100.00;98411.25;4994036;28;20610;-61
2021/12/08 06:41:32;;;;;;;6.60;5.20;;;;;;;3.00;100.00;98416.63;4982747;28;20737;-60
2021/12/08 06:44:04;;;;;;;8.53;5.30;;;;;;;3.03;100.00;98429.16;4993919;28;20218;-60
2021/12/08 06:46:30;;;;;;;8.93;6.27;;;;;;;2.72;100.00;98432.41;4994138;28;20174;-61
2021/12/08 06:48:58;;;;;;;6.60;5.23;;;;;;;2.87;100.00;98428.31;4993957;28;20661;-60
2021/12/08 06:51:27;;;;;;;7.03;5.80;;;;;;;2.96;100.00;98435.44;4982488;28;20280;-60
2021/12/08 06:53:58;;;;;;;8.53;5.60;;;;;;;2.86;100.00;98409.69;4993352;28;20178;-60
2021/12/08 06:56:36;;;;;;;8.53;5.43;;;;;;;3.02;100.00;98399.56;4993633;28;20264;-60
2021/12/08 06:59:06;;;;;;;7.23;5.67;;;;;;;3.15;100.00;98416.75;5004052;28;20182;-60
2021/12/08 07:01:47;;;;;;;6.70;5.60;;;;;;;3.04;100.00;98433.34;5001976;28;20758;-60
2021/12/08 07:05:26;;;;;;;7.93;5.93;;;;;;;3.03;100.00;98441.88;4995527;28;20189;-60
2021/12/08 07:07:38;;;;;;;6.70;5.63;;;;;;;3.13;100.00;98456.66;5009934;28;20286;-60
2021/12/08 07:10:14;;;;;;;7.47;6.03;;;;;;;2.98;100.00;98450.63;5002494;28;20195;-60
2021/12/08 07:12:45;;;;;;;7.37;5.30;;;;;;;3.11;100.00;98446.56;5011693;28;20183;-60
2021/12/08 07:15:18;;;;;;;8.43;6.10;;;;;;;3.11;100.00;98436.41;5012888;28;20953;-60
2021/12/08 07:17:50;;;;;;;10.87;7.23;;;;;;;3.01;100.00;98438.56;5001737;28;20711;-60
2021/12/08 07:20:39;;;;;;;7.77;6.37;;;;;;;3.09;100.00;98448.38;4983722;28;20222;-60
2021/12/08 07:23:05;;;;;;;7.97;6.73;;;;;;;3.12;100.00;98452.47;4979903;28;20183;-60
2021/12/08 07:25:33;;;;;;;6.63;5.73;;;;;;;3.07;100.00;98457.78;4973468;28;20678;-60
2021/12/08 07:27:59;;;;;;;9.10;6.20;;;;;;;3.25;100.00;98453.50;4989933;28;20183;-60
2021/12/08 07:30:38;;;;;;;7.63;5.93;;;;;;;3.14;100.00;98451.50;4980135;28;20245;-62
2021/12/08 07:33:05;;;;;;;6.43;5.83;;;;;;;3.12;100.00;98463.44;4988453;28;20187;-60
2021/12/08 07:35:39;;;;;;;6.50;5.90;;;;;;;3.36;100.00;98480.91;4992159;28;20191;-60
2021/12/08 07:38:06;;;;;;;8.40;6.43;;;;;;;3.44;100.00;98477.97;4990458;28;20258;-60
2021/12/08 07:40:43;;;;;;;8.03;6.57;;;;;;;3.48;98.95;98465.00;4978097;28;20312;-60
2021/12/08 07:43:13;;;;;;;8.47;6.60;;;;;;;3.20;99.58;98478.31;4992306;28;20181;-60
2021/12/08 07:45:43;;;;;;;8.43;6.30;;;;;;;3.33;100.00;98469.16;4984976;28;20574;-60
2021/12/08 07:48:14;;;;;;;8.43;6.80;;;;;;;3.25;100.00;98458.59;4982773;28;20194;-60
2021/12/08 07:50:44;;;;;;;7.57;6.03;;;;;;;3.28;100.00;98448.25;4981010;28;20315;-59
2021/12/08 07:53:11;;;;;;;7.53;6.83;;;;;;;3.35;99.90;98436.88;5001535;28;20185;-60
2021/12/08 07:55:43;;;;;;;10.97;8.13;;;;;;;3.05;100.00;98436.69;5012595;28;20303;-60
2021/12/08 07:58:12;;;;;;;9.93;7.30;;;;;;;3.09;100.00;98450.91;5012287;28;20189;-61
2021/12/08 08:00:46;;;;;;;9.67;7.20;;;;;;;3.25;100.00;98465.38;4976514;28;20252;-61
2021/12/08 08:03:13;;;;;;;9.40;7.20;;;;;;;3.31;100.00;98462.53;4988007;28;20189;-61
2021/12/08 08:05:39;;;;;;;9.57;7.13;;;;;;;3.08;100.00;98456.88;4995466;28;20541;-60
2021/12/08 08:08:09;;;;;;;10.20;6.43;;;;;;;3.00;100.00;98459.81;4984996;28;20201;-61
2021/12/08 08:10:41;;;;;;;7.70;6.87;;;;;;;2.95;100.00;98440.63;4981698;28;20249;-60
2021/12/08 08:13:08;;;;;;;9.13;7.53;;;;;;;3.00;100.00;98434.41;4986807;28;20268;-61
2021/12/08 08:15:40;;;;;;;14.40;7.60;;;;;;;3.14;100.00;98420.16;4986322;28;20251;-60
2021/12/08 08:18:09;;;;;;;14.60;7.33;;;;;;;3.05;100.00;98431.63;4989020;28;20300;-59
2021/12/08 08:20:39;;;;;;;12.83;7.60;;;;;;;3.01;100.00;98432.69;4981182;28;20361;-59
2021/12/08 08:23:05;;;;;;;10.40;6.70;;;;;;;3.08;100.00;98434.03;4986048;28;20178;-59
2021/12/08 08:25:34;;;;;;;13.97;7.67;;;;;;;3.22;100.00;98443.47;4990895;28;20194;-60
2021/12/08 08:28:01;;;;;;;8.33;7.50;;;;;;;3.06;100.00;98443.44;4990200;28;20209;-59
2021/12/08 08:30:32;;;;;;;10.03;7.40;;;;;;;3.11;100.00;98446.56;4960617;28;20252;-60
2021/12/08 08:32:58;;;;;;;9.10;6.67;;;;;;;3.13;100.00;98451.59;4990006;28;20204;-62
2021/12/08 08:35:39;;;;;;;7.83;6.73;;;;;;;3.34;100.00;98454.75;4983990;28;20190;-61
2021/12/08 08:38:11;;;;;;;9.83;7.60;;;;;;;3.44;100.00;98448.28;4991602;28;20533;-60
2021/12/08 08:40:40;;;;;;;8.23;7.43;;;;;;;3.47;100.00;98455.75;4985683;28;20604;-60
2021/12/08 08:43:10;;;;;;;8.37;7.40;;;;;;;3.67;99.69;98459.81;4988891;28;20197;-59
2021/12/08 08:45:41;;;;;;;9.47;7.37;;;;;;;3.82;98.59;98467.50;4984014;28;20184;-59
2021/12/08 08:48:21;;;;;;;8.70;6.60;;;;;;;3.90;97.96;98474.75;4972102;28;20308;-61
2021/12/08 08:50:52;;;;;;;11.80;7.90;;;;;;;3.72;97.09;98469.72;4965508;28;20598;-60
2021/12/08 08:53:19;;;;;;;11.27;7.40;;;;;;;3.52;98.13;98461.44;4985531;28;20190;-61
2021/12/08 08:55:57;;;;;;;8.10;6.57;;;;;;;3.43;98.57;98469.53;4982498;28;20216;-59
2021/12/08 08:58:25;;;;;;;11.47;6.70;;;;;;;3.76;98.84;98467.84;4983147;28;20204;-61
2021/12/08 09:01:05;;;;;;;9.90;6.63;;;;;;;3.76;97.89;98466.13;5000194;28;20317;-60
2021/12/08 09:03:34;;;;;;;8.63;6.83;;;;;;;3.95;97.13;98475.34;5010479;28;20174;-61
2021/12/08 09:06:06;;;;;;;10.17;6.80;;;;;;;4.04;96.46;98475.66;5011109;28;20189;-60
2021/12/08 09:08:34;;;;;;;8.43;6.47;;;;;;;4.01;95.70;98475.81;5010983;28;20178;-60
2021/12/08 09:11:12;;;;;;;8.87;7.00;;;;;;;4.00;95.31;98476.72;5000170;28;20633;-60
2021/12/08 09:14:02;;;;;;;7.97;6.83;;;;;;;3.92;95.49;98478.88;5010388;28;20667;-60
2021/12/08 09:16:34;;;;;;;7.83;7.03;;;;;;;3.91;96.39;98476.38;5008078;28;20172;-59
2021/12/08 09:19:09;;;;;;;7.90;7.10;;;;;;;3.98;95.23;98480.25;5003296;28;20186;-60
2021/12/08 09:21:47;;;;;;;7.30;6.60;;;;;;;3.83;95.74;98485.25;4999939;28;20241;-60
2021/12/08 09:24:23;;;;;;;8.10;7.13;;;;;;;3.70;97.12;98485.06;4990400;28;20237;-61
2021/12/08 09:26:54;;;;;;;8.10;7.23;;;;;;;3.51;97.77;98479.28;4983305;28;20524;-61
2021/12/08 09:29:24;;;;;;;8.70;7.83;;;;;;;3.70;98.92;98482.53;4991133;28;20183;-60
2021/12/08 09:31:57;;;;;;;10.93;8.00;;;;;;;3.84;99.05;98499.59;4994807;28;20226;-61
2021/12/08 09:34:28;;;;;;;9.13;8.03;;;;;;;3.92;99.13;98514.47;4991847;28;20203;-61
2021/12/08 09:36:59;;;;;;;11.87;8.30;;;;;;;3.97;98.65;98519.31;4989740;28;20182;-61
2021/12/08 09:39:36;;;;;;;10.83;8.83;;;;;;;4.20;97.75;98523.19;4990793;28;20175;-60
2021/12/08 09:42:25;;;;;;;9.80;7.90;;;;;;;4.26;96.59;98533.03;4995756;28;20690;-60
2021/12/08 09:44:59;;;;;;;10.40;8.20;;;;;;;4.35;96.26;98519.81;5010620;28;20190;-60
2021/12/08 09:47:29;;;;;;;10.00;8.03;;;;;;;4.25;96.40;98518.66;5010308;28;20607;-60
2021/12/08 09:49:59;;;;;;;9.73;8.80;;;;;;;4.28;96.58;98532.94;5013324;28;20593;-60
2021/12/08 09:52:27;;;;;;;9.50;8.00;;;;;;;3.80;97.97;98535.47;5003532;28;20616;-60
2021/12/08 09:55:00;;;;;;;9.13;8.23;;;;;;;3.65;99.64;98542.97;5010329;28;20191;-60
2021/12/08 09:57:27;;;;;;;10.40;8.60;;;;;;;3.57;100.00;98541.72;4989556;28;20939;-60
2021/12/08 09:59:53;;;;;;;14.60;9.10;;;;;;;3.48;100.00;98543.00;4992233;28;20741;-61
2021/12/08 10:02:28;;;;;;;12.37;8.90;;;;;;;3.50;100.00;98548.84;4991823;28;20222;-60
2021/12/08 10:05:10;;;;;;;12.00;9.27;;;;;;;3.64;100.00;98532.91;4991795;28;20183;-60
2021/12/08 10:07:35;;;;;;;11.73;9.33;;;;;;;3.53;100.00;98536.78;4990762;28;20542;-60
2021/12/08 10:10:02;;;;;;;11.73;8.90;;;;;;;3.66;100.00;98543.78;4994174;28;20186;-61
2021/12/08 10:12:28;;;;;;;10.67;8.70;;;;;;;3.83;100.00;98540.38;4965409;28;20255;-60
2021/12/08 10:14:54;;;;;;;10.03;8.50;;;;;;;4.10;100.00;98534.75;4993536;28;20199;-61
2021/12/08 10:17:20;;;;;;;11.43;9.07;;;;;;;4.07;100.00;98533.22;4990165;28;20188;-61
2021/12/08 10:20:02;;;;;;;13.77;9.77;;;;;;;3.88;100.00;98531.63;4978851;28;20208;-60
2021/12/08 10:22:28;;;;;;;12.10;9.47;;;;;;;3.78;100.00;98539.81;4959920;28;20601;-60
2021/12/08 10:25:16;;;;;;;12.60;9.53;;;;;;;3.82;100.00;98521.78;4986768;28;20275;-60
2021/12/08 10:28:19;;;;;;;10.67;9.57;;;;;;;3.87;100.00;98517.25;4983046;28;20180;-61
2021/12/08 10:31:14;;;;;;;13.00;9.40;;;;;;;4.04;100.00;98513.00;4885554;29;20229;-60
2021/12/08 10:34:11;;;;;;;11.23;9.70;;;;;;;4.11;100.00;98514.31;4893903;29;20211;-61
2021/12/08 10:39:19;;;;;;;11.17;9.00;;;;;;;4.51;100.00;98512.19;4893233;29;20323;-60
2021/12/08 10:42:17;;;;;;;15.03;9.57;;;;;;;4.39;100.00;98519.66;4888493;29;20241;-60
2021/12/08 10:44:55;;;;;;;11.43;9.13;;;;;;;4.50;100.00;98499.50;4914536;29;20731;-60
2021/12/08 10:47:36;;;;;;;14.40;9.60;;;;;;;4.59;99.66;98500.72;4914465;29;20735;-60
2021/12/08 10:55:24;;;;;;;11.73;9.80;;;;;;;4.62;98.73;98490.38;4934120;29;20193;-60
2021/12/08 10:57:53;;;;;;;11.60;9.37;;;;;;;4.32;100.00;98488.63;4916587;29;20232;-60
2021/12/08 11:00:30;;;;;;;12.90;8.50;;;;;;;4.31;100.00;98482.69;4903684;29;20378;-60
2021/12/08 11:03:01;;;;;;;13.90;9.50;;;;;;;4.20;100.00;98472.28;4913151;29;20229;-60
2021/12/08 11:05:31;;;;;;;10.67;9.03;;;;;;;4.55;100.00;98471.25;4969760;28;20195;-62
2021/12/08 11:08:13;;;;;;;11.37;9.50;;;;;;;4.69;100.00;98474.66;4988776;28;20180;-60
2021/12/08 11:10:47;;;;;;;11.87;9.97;;;;;;;4.82;99.63;98472.22;4974754;28;20265;-60
2021/12/08 11:13:15;;;;;;;12.40;11.10;;;;;;;5.44;95.50;98466.09;4972349;28;20447;-61
2021/12/08 11:15:42;;;;;;;10.80;9.70;;;;;;;5.24;95.44;98472.38;4954134;28;20993;-61
2021/12/08 11:18:14;;;;;;;12.57;9.57;;;;;;;4.80;96.64;98468.13;4984590;28;20264;-61
2021/12/08 11:20:52;;;;;;;12.43;9.33;;;;;;;4.70;97.97;98480.56;4963152;28;20250;-60
2021/12/08 11:23:38;;;;;;;13.00;9.00;;;;;;;4.67;98.71;98480.75;4973210;28;20300;-61
2021/12/08 11:26:14;;;;;;;10.67;9.57;;;;;;;4.51;99.44;98479.06;4973768;28;20187;-61
2021/12/08 11:28:40;;;;;;;10.60;9.07;;;;;;;4.53;100.00;98484.06;4973544;28;20526;-60
2021/12/08 11:31:15;;;;;;;10.23;8.80;;;;;;;4.65;100.00;98483.38;4962778;28;20227;-61
2021/12/08 11:33:44;;;;;;;10.93;8.90;;;;;;;4.55;100.00;98489.88;4972068;28;20703;-60
2021/12/08 11:36:24;;;;;;;12.40;9.23;;;;;;;4.79;100.00;98486.88;4973268;28;20671;-60
2021/12/08 11:38:50;;;;;;;11.93;8.93;;;;;;;4.99;99.18;98484.00;4973448;28;20224;-60
2021/12/08 11:41:35;;;;;;;10.93;9.10;;;;;;;4.87;97.70;98486.44;4950686;28;20367;-60
2021/12/08 11:44:25;;;;;;;10.47;9.47;;;;;;;4.90;97.83;98489.63;4943830;28;20522;-60
2021/12/08 11:46:56;;;;;;;12.40;10.17;;;;;;;4.92;97.91;98489.56;4948127;28;20251;-61
2021/12/08 11:49:23;;;;;;;14.03;11.43;;;;;;;5.05;97.27;98479.47;4957483;28;20204;-61
2021/12/08 11:52:10;;;;;;;11.07;9.87;;;;;;;5.10;96.76;98474.94;4953082;28;20230;-61
2021/12/08 11:54:44;;;;;;;15.13;10.43;;;;;;;5.21;96.47;98477.69;4952889;28;20255;-61
2021/12/08 11:57:19;;;;;;;17.93;10.73;;;;;;;4.88;97.07;98483.81;4953039;28;20188;-61
2021/12/08 11:59:50;;;;;;;12.10;10.20;;;;;;;4.74;97.99;98476.94;4977209;28;20188;-61
2021/12/08 12:02:18;;;;;;;13.07;9.90;;;;;;;4.91;98.59;98470.91;4957025;28;20219;-61
2021/12/08 12:04:45;;;;;;;367.08;130.15;;;;;;;5.05;96.94;98467.56;4960922;28;20429;-60
2021/12/08 12:07:12;;;;;;;18.47;14.03;;;;;;;4.60;99.53;98474.34;4956516;28;20622;-61
2021/12/08 12:09:38;;;;;;;11.80;10.50;;;;;;;4.35;100.00;98476.53;4952969;28;20727;-60
2021/12/08 12:12:04;;;;;;;19.90;12.43;;;;;;;4.60;100.00;98475.19;4957825;28;20236;-60
2021/12/08 12:14:29;;;;;;;21.93;12.60;;;;;;;4.90;100.00;98481.16;4953263;28;20179;-60
2021/12/08 12:16:55;;;;;;;15.37;10.47;;;;;;;4.66;99.86;98479.94;4965457;28;20219;-60
2021/12/08 12:19:24;;;;;;;14.67;10.73;;;;;;;4.80;100.00;98475.75;4965088;28;20980;-60
2021/12/08 12:21:58;;;;;;;11.63;9.53;;;;;;;4.77;99.91;98471.66;4976078;28;20693;-60
2021/12/08 12:24:27;;;;;;;13.33;9.40;;;;;;;4.82;99.62;98479.88;4973186;28;20182;-61
2021/12/08 12:27:12;;;;;;;10.40;9.30;;;;;;;4.92;98.77;98479.34;4972656;28;20263;-61
2021/12/08 12:29:57;;;;;;;12.13;10.60;;;;;;;5.08;97.38;98474.19;4970936;28;20433;-61
2021/12/08 12:32:28;;;;;;;10.80;9.80;;;;;;;5.04;98.29;98470.19;4958614;28;20239;-61
2021/12/08 12:35:21;;;;;;;17.40;9.03;;;;;;;5.28;97.69;98480.69;4970556;28;20195;-61